la Seu d'Urgell, Spain
Current Conditions -  °F | °C
As of 3:00 PM on Monday 26 Jan 2015 (Local Time) from LELL Reporting Station
Scattered Clouds Scattered Clouds  
Wind Chill: 10°   Ceiling: Unl
Heat Index: 10°   Visibility: 6mi
Dew Point:   Wind: 1mph
Humidity: 50%   Direction: NA
Pressure: 30.27"   Gusts: NA
Location:  42.36°N, 1.46°E
Report Text: LELL 261400Z VRB01KT 9999 FEW075 SCT080 10/00 Q1025
Loading
Personal Weather Stations






























Interactive Weather Map New forecast layout! Learn more

10-Day Weather Forecast

Advertisements
Track Severe Weather on mobile